sensor_id;sensor_type;location;lat;lon;timestamp;P1;durP1;ratioP1;P2;durP2;ratioP2
15398;SDS011;7797;51.428;6.756;2022-07-25T00:01:57;7.18;;;6.15;;
15398;SDS011;7797;51.428;6.756;2022-07-25T00:04:25;6.50;;;5.90;;
15398;SDS011;7797;51.428;6.756;2022-07-25T00:06:52;6.20;;;5.60;;
15398;SDS011;7797;51.428;6.756;2022-07-25T00:09:19;6.47;;;5.97;;
15398;SDS011;7797;51.428;6.756;2022-07-25T00:11:46;6.60;;;6.00;;
15398;SDS011;7797;51.428;6.756;2022-07-25T00:14:12;6.70;;;5.70;;
15398;SDS011;7797;51.428;6.756;2022-07-25T00:16:39;6.78;;;6.10;;
15398;SDS011;7797;51.428;6.756;2022-07-25T00:19:06;6.40;;;5.90;;
15398;SDS011;7797;51.428;6.756;2022-07-25T00:21:34;6.30;;;5.70;;
15398;SDS011;7797;51.428;6.756;2022-07-25T00:24:00;6.22;;;5.68;;
15398;SDS011;7797;51.428;6.756;2022-07-25T00:26:28;6.38;;;5.53;;
15398;SDS011;7797;51.428;6.756;2022-07-25T00:28:54;7.57;;;5.88;;
15398;SDS011;7797;51.428;6.756;2022-07-25T00:31:21;6.45;;;5.85;;
15398;SDS011;7797;51.428;6.756;2022-07-25T00:33:48;6.47;;;5.93;;
15398;SDS011;7797;51.428;6.756;2022-07-25T00:36:17;6.25;;;5.75;;
15398;SDS011;7797;51.428;6.756;2022-07-25T00:38:44;6.18;;;5.68;;
15398;SDS011;7797;51.428;6.756;2022-07-25T00:41:11;6.22;;;5.70;;
15398;SDS011;7797;51.428;6.756;2022-07-25T00:43:41;6.22;;;5.63;;
15398;SDS011;7797;51.428;6.756;2022-07-25T00:46:12;6.72;;;5.95;;
15398;SDS011;7797;51.428;6.756;2022-07-25T00:48:44;6.30;;;5.70;;
15398;SDS011;7797;51.428;6.756;2022-07-25T00:51:11;6.65;;;5.95;;
15398;SDS011;7797;51.428;6.756;2022-07-25T00:53:38;6.20;;;5.70;;
15398;SDS011;7797;51.428;6.756;2022-07-25T00:56:05;6.90;;;5.55;;
15398;SDS011;7797;51.428;6.756;2022-07-25T00:58:32;6.43;;;5.93;;
15398;SDS011;7797;51.428;6.756;2022-07-25T01:00:59;6.50;;;5.90;;
15398;SDS011;7797;51.428;6.756;2022-07-25T01:03:26;6.45;;;5.75;;
15398;SDS011;7797;51.428;6.756;2022-07-25T01:05:53;6.95;;;5.97;;
15398;SDS011;7797;51.428;6.756;2022-07-25T01:08:21;6.15;;;5.65;;
15398;SDS011;7797;51.428;6.756;2022-07-25T01:10:48;6.68;;;6.18;;
15398;SDS011;7797;51.428;6.756;2022-07-25T01:13:15;6.00;;;5.50;;
15398;SDS011;7797;51.428;6.756;2022-07-25T01:15:42;7.72;;;6.07;;
15398;SDS011;7797;51.428;6.756;2022-07-25T01:18:09;6.30;;;5.70;;
15398;SDS011;7797;51.428;6.756;2022-07-25T01:20:35;6.20;;;5.80;;
15398;SDS011;7797;51.428;6.756;2022-07-25T01:23:02;5.70;;;5.30;;
15398;SDS011;7797;51.428;6.756;2022-07-25T01:25:29;6.57;;;5.97;;
15398;SDS011;7797;51.428;6.756;2022-07-25T01:27:56;6.90;;;6.07;;
15398;SDS011;7797;51.428;6.756;2022-07-25T01:30:23;6.20;;;5.72;;
15398;SDS011;7797;51.428;6.756;2022-07-25T01:32:51;6.75;;;5.93;;
15398;SDS011;7797;51.428;6.756;2022-07-25T01:35:18;6.47;;;5.97;;
15398;SDS011;7797;51.428;6.756;2022-07-25T01:37:45;6.35;;;5.85;;
15398;SDS011;7797;51.428;6.756;2022-07-25T01:40:12;7.35;;;6.30;;
15398;SDS011;7797;51.428;6.756;2022-07-25T01:42:40;6.28;;;5.78;;
15398;SDS011;7797;51.428;6.756;2022-07-25T01:45:07;7.40;;;6.18;;
15398;SDS011;7797;51.428;6.756;2022-07-25T01:47:35;6.45;;;5.85;;
15398;SDS011;7797;51.428;6.756;2022-07-25T01:50:02;6.40;;;5.85;;
15398;SDS011;7797;51.428;6.756;2022-07-25T01:52:32;6.85;;;6.20;;
15398;SDS011;7797;51.428;6.756;2022-07-25T01:54:59;6.13;;;5.68;;
15398;SDS011;7797;51.428;6.756;2022-07-25T01:57:26;7.10;;;5.70;;
15398;SDS011;7797;51.428;6.756;2022-07-25T01:59:56;7.22;;;6.10;;
15398;SDS011;7797;51.428;6.756;2022-07-25T02:02:25;6.85;;;6.35;;
15398;SDS011;7797;51.428;6.756;2022-07-25T02:04:52;6.32;;;5.82;;
15398;SDS011;7797;51.428;6.756;2022-07-25T02:07:20;6.35;;;5.85;;
15398;SDS011;7797;51.428;6.756;2022-07-25T02:09:48;7.05;;;6.40;;
15398;SDS011;7797;51.428;6.756;2022-07-25T02:12:21;6.47;;;5.88;;
15398;SDS011;7797;51.428;6.756;2022-07-25T02:14:49;6.90;;;6.30;;
15398;SDS011;7797;51.428;6.756;2022-07-25T02:17:16;6.28;;;5.78;;
15398;SDS011;7797;51.428;6.756;2022-07-25T02:19:43;6.65;;;6.05;;
15398;SDS011;7797;51.428;6.756;2022-07-25T02:22:10;7.25;;;6.57;;
15398;SDS011;7797;51.428;6.756;2022-07-25T02:24:38;7.05;;;6.35;;
15398;SDS011;7797;51.428;6.756;2022-07-25T02:27:06;6.82;;;6.13;;
15398;SDS011;7797;51.428;6.756;2022-07-25T02:29:33;6.78;;;6.18;;
15398;SDS011;7797;51.428;6.756;2022-07-25T02:32:00;6.90;;;6.30;;
15398;SDS011;7797;51.428;6.756;2022-07-25T02:34:28;6.35;;;5.72;;
15398;SDS011;7797;51.428;6.756;2022-07-25T02:36:54;5.97;;;5.35;;
15398;SDS011;7797;51.428;6.756;2022-07-25T02:39:22;8.25;;;6.40;;
15398;SDS011;7797;51.428;6.756;2022-07-25T02:41:49;7.10;;;6.30;;
15398;SDS011;7797;51.428;6.756;2022-07-25T02:44:16;5.97;;;5.47;;
15398;SDS011;7797;51.428;6.756;2022-07-25T02:46:45;6.72;;;6.13;;
15398;SDS011;7797;51.428;6.756;2022-07-25T02:49:12;6.38;;;5.78;;
15398;SDS011;7797;51.428;6.756;2022-07-25T02:51:40;6.20;;;5.70;;
15398;SDS011;7797;51.428;6.756;2022-07-25T02:54:07;6.60;;;5.95;;
15398;SDS011;7797;51.428;6.756;2022-07-25T02:56:34;7.05;;;6.40;;
15398;SDS011;7797;51.428;6.756;2022-07-25T02:59:02;6.65;;;6.03;;
15398;SDS011;7797;51.428;6.756;2022-07-25T03:01:29;6.57;;;5.88;;
15398;SDS011;7797;51.428;6.756;2022-07-25T03:03:57;9.63;;;6.13;;
15398;SDS011;7797;51.428;6.756;2022-07-25T03:06:24;6.53;;;5.93;;
15398;SDS011;7797;51.428;6.756;2022-07-25T03:08:51;7.15;;;5.95;;
15398;SDS011;7797;51.428;6.756;2022-07-25T03:11:20;6.57;;;6.07;;
15398;SDS011;7797;51.428;6.756;2022-07-25T03:13:47;6.20;;;5.65;;
15398;SDS011;7797;51.428;6.756;2022-07-25T03:16:14;6.97;;;6.35;;
15398;SDS011;7797;51.428;6.756;2022-07-25T03:18:40;7.03;;;6.32;;
15398;SDS011;7797;51.428;6.756;2022-07-25T03:21:07;7.53;;;6.00;;
15398;SDS011;7797;51.428;6.756;2022-07-25T03:23:34;6.15;;;5.55;;
15398;SDS011;7797;51.428;6.756;2022-07-25T03:26:01;6.85;;;6.03;;
15398;SDS011;7797;51.428;6.756;2022-07-25T03:28:27;6.70;;;6.13;;
15398;SDS011;7797;51.428;6.756;2022-07-25T03:30:54;7.60;;;6.28;;
15398;SDS011;7797;51.428;6.756;2022-07-25T03:33:21;6.50;;;5.90;;
15398;SDS011;7797;51.428;6.756;2022-07-25T03:35:47;6.43;;;5.80;;
15398;SDS011;7797;51.428;6.756;2022-07-25T03:38:14;6.60;;;6.00;;
15398;SDS011;7797;51.428;6.756;2022-07-25T03:40:41;6.53;;;5.97;;
15398;SDS011;7797;51.428;6.756;2022-07-25T03:43:08;6.00;;;5.40;;
15398;SDS011;7797;51.428;6.756;2022-07-25T03:45:34;8.35;;;6.35;;
15398;SDS011;7797;51.428;6.756;2022-07-25T03:48:01;6.78;;;6.15;;
15398;SDS011;7797;51.428;6.756;2022-07-25T03:50:28;6.32;;;5.65;;
15398;SDS011;7797;51.428;6.756;2022-07-25T03:52:54;6.85;;;6.25;;
15398;SDS011;7797;51.428;6.756;2022-07-25T03:55:21;7.57;;;6.20;;
15398;SDS011;7797;51.428;6.756;2022-07-25T03:57:49;6.60;;;6.00;;
15398;SDS011;7797;51.428;6.756;2022-07-25T04:00:15;9.32;;;6.10;;
15398;SDS011;7797;51.428;6.756;2022-07-25T04:02:43;6.20;;;5.70;;
15398;SDS011;7797;51.428;6.756;2022-07-25T04:05:10;6.78;;;6.20;;
15398;SDS011;7797;51.428;6.756;2022-07-25T04:07:36;6.50;;;5.90;;
15398;SDS011;7797;51.428;6.756;2022-07-25T04:10:04;6.88;;;6.10;;
15398;SDS011;7797;51.428;6.756;2022-07-25T04:12:31;6.95;;;6.28;;
15398;SDS011;7797;51.428;6.756;2022-07-25T04:14:58;7.22;;;5.63;;
15398;SDS011;7797;51.428;6.756;2022-07-25T04:17:25;7.07;;;6.38;;
15398;SDS011;7797;51.428;6.756;2022-07-25T04:19:52;6.40;;;5.85;;
15398;SDS011;7797;51.428;6.756;2022-07-25T04:22:18;6.10;;;5.50;;
15398;SDS011;7797;51.428;6.756;2022-07-25T04:24:45;6.30;;;5.80;;
15398;SDS011;7797;51.428;6.756;2022-07-25T04:27:12;6.07;;;5.55;;
15398;SDS011;7797;51.428;6.756;2022-07-25T04:29:39;7.15;;;5.68;;
15398;SDS011;7797;51.428;6.756;2022-07-25T04:32:05;7.00;;;5.90;;
15398;SDS011;7797;51.428;6.756;2022-07-25T04:34:32;6.72;;;5.82;;
15398;SDS011;7797;51.428;6.756;2022-07-25T04:36:59;6.18;;;5.65;;
15398;SDS011;7797;51.428;6.756;2022-07-25T04:39:26;6.25;;;5.63;;
15398;SDS011;7797;51.428;6.756;2022-07-25T04:41:53;6.18;;;5.57;;
15398;SDS011;7797;51.428;6.756;2022-07-25T04:44:19;6.18;;;5.57;;
15398;SDS011;7797;51.428;6.756;2022-07-25T04:46:46;6.75;;;5.38;;
15398;SDS011;7797;51.428;6.756;2022-07-25T04:49:13;5.70;;;5.18;;
15398;SDS011;7797;51.428;6.756;2022-07-25T04:51:39;6.55;;;5.85;;
15398;SDS011;7797;51.428;6.756;2022-07-25T04:54:06;6.60;;;6.10;;
15398;SDS011;7797;51.428;6.756;2022-07-25T04:56:35;6.07;;;5.45;;
15398;SDS011;7797;51.428;6.756;2022-07-25T04:59:01;6.05;;;5.50;;
15398;SDS011;7797;51.428;6.756;2022-07-25T05:01:32;7.45;;;6.13;;
15398;SDS011;7797;51.428;6.756;2022-07-25T05:03:59;6.40;;;5.85;;
15398;SDS011;7797;51.428;6.756;2022-07-25T05:06:26;6.18;;;5.53;;
15398;SDS011;7797;51.428;6.756;2022-07-25T05:08:53;6.60;;;6.00;;
15398;SDS011;7797;51.428;6.756;2022-07-25T05:11:20;6.35;;;5.80;;
15398;SDS011;7797;51.428;6.756;2022-07-25T05:13:47;8.35;;;5.85;;
15398;SDS011;7797;51.428;6.756;2022-07-25T05:16:14;5.95;;;5.45;;
15398;SDS011;7797;51.428;6.756;2022-07-25T05:18:41;5.30;;;4.90;;
15398;SDS011;7797;51.428;6.756;2022-07-25T05:21:12;6.10;;;5.55;;
15398;SDS011;7797;51.428;6.756;2022-07-25T05:23:39;5.65;;;5.10;;
15398;SDS011;7797;51.428;6.756;2022-07-25T05:26:06;5.95;;;5.43;;
15398;SDS011;7797;51.428;6.756;2022-07-25T05:28:33;5.93;;;5.32;;
15398;SDS011;7797;51.428;6.756;2022-07-25T05:30:59;5.63;;;5.10;;
15398;SDS011;7797;51.428;6.756;2022-07-25T05:33:26;5.25;;;4.85;;
15398;SDS011;7797;51.428;6.756;2022-07-25T05:35:53;5.80;;;5.28;;
15398;SDS011;7797;51.428;6.756;2022-07-25T05:38:20;5.43;;;5.00;;
15398;SDS011;7797;51.428;6.756;2022-07-25T05:40:47;5.95;;;5.45;;
15398;SDS011;7797;51.428;6.756;2022-07-25T05:43:14;6.07;;;5.50;;
15398;SDS011;7797;51.428;6.756;2022-07-25T05:45:41;8.77;;;5.47;;
15398;SDS011;7797;51.428;6.756;2022-07-25T05:48:07;6.30;;;5.40;;
15398;SDS011;7797;51.428;6.756;2022-07-25T05:50:37;5.93;;;5.43;;
15398;SDS011;7797;51.428;6.756;2022-07-25T05:53:04;6.50;;;5.88;;
15398;SDS011;7797;51.428;6.756;2022-07-25T05:55:31;5.93;;;5.38;;
15398;SDS011;7797;51.428;6.756;2022-07-25T05:57:58;8.07;;;5.63;;
15398;SDS011;7797;51.428;6.756;2022-07-25T06:00:27;6.07;;;5.47;;
15398;SDS011;7797;51.428;6.756;2022-07-25T06:02:56;6.10;;;5.50;;
15398;SDS011;7797;51.428;6.756;2022-07-25T06:05:24;5.78;;;5.18;;
15398;SDS011;7797;51.428;6.756;2022-07-25T06:07:51;5.88;;;5.35;;
15398;SDS011;7797;51.428;6.756;2022-07-25T06:10:18;6.18;;;5.57;;
15398;SDS011;7797;51.428;6.756;2022-07-25T06:12:45;6.10;;;5.40;;
15398;SDS011;7797;51.428;6.756;2022-07-25T06:15:12;6.05;;;5.55;;
15398;SDS011;7797;51.428;6.756;2022-07-25T06:17:51;6.50;;;5.90;;
15398;SDS011;7797;51.428;6.756;2022-07-25T06:20:18;5.90;;;4.82;;
15398;SDS011;7797;51.428;6.756;2022-07-25T06:22:45;5.55;;;5.15;;
15398;SDS011;7797;51.428;6.756;2022-07-25T06:25:11;6.07;;;5.47;;
15398;SDS011;7797;51.428;6.756;2022-07-25T06:27:38;7.18;;;5.60;;
15398;SDS011;7797;51.428;6.756;2022-07-25T06:30:06;5.75;;;5.07;;
15398;SDS011;7797;51.428;6.756;2022-07-25T06:32:45;6.20;;;5.70;;
15398;SDS011;7797;51.428;6.756;2022-07-25T06:35:11;6.45;;;5.72;;
15398;SDS011;7797;51.428;6.756;2022-07-25T06:37:38;6.15;;;5.45;;
15398;SDS011;7797;51.428;6.756;2022-07-25T06:40:05;5.50;;;5.05;;
15398;SDS011;7797;51.428;6.756;2022-07-25T06:42:36;6.50;;;5.90;;
15398;SDS011;7797;51.428;6.756;2022-07-25T06:45:04;7.43;;;5.53;;
15398;SDS011;7797;51.428;6.756;2022-07-25T06:47:32;6.55;;;5.95;;
15398;SDS011;7797;51.428;6.756;2022-07-25T06:50:01;5.72;;;5.20;;
15398;SDS011;7797;51.428;6.756;2022-07-25T06:52:32;5.95;;;5.40;;
15398;SDS011;7797;51.428;6.756;2022-07-25T06:54:59;6.13;;;5.53;;
15398;SDS011;7797;51.428;6.756;2022-07-25T06:57:26;6.03;;;5.28;;
15398;SDS011;7797;51.428;6.756;2022-07-25T06:59:53;8.02;;;5.45;;
15398;SDS011;7797;51.428;6.756;2022-07-25T07:02:20;6.57;;;5.70;;
15398;SDS011;7797;51.428;6.756;2022-07-25T07:04:46;5.80;;;5.30;;
15398;SDS011;7797;51.428;6.756;2022-07-25T07:07:13;6.25;;;5.75;;
15398;SDS011;7797;51.428;6.756;2022-07-25T07:09:41;8.45;;;5.63;;
15398;SDS011;7797;51.428;6.756;2022-07-25T07:12:09;6.30;;;5.70;;
15398;SDS011;7797;51.428;6.756;2022-07-25T07:14:36;6.32;;;5.65;;
15398;SDS011;7797;51.428;6.756;2022-07-25T07:17:03;7.68;;;6.05;;
15398;SDS011;7797;51.428;6.756;2022-07-25T07:19:30;10.43;;;6.13;;
15398;SDS011;7797;51.428;6.756;2022-07-25T07:21:57;6.20;;;5.60;;
15398;SDS011;7797;51.428;6.756;2022-07-25T07:24:24;7.22;;;5.85;;
15398;SDS011;7797;51.428;6.756;2022-07-25T07:26:51;6.72;;;6.00;;
15398;SDS011;7797;51.428;6.756;2022-07-25T07:29:19;7.00;;;5.95;;
15398;SDS011;7797;51.428;6.756;2022-07-25T07:31:46;7.15;;;5.85;;
15398;SDS011;7797;51.428;6.756;2022-07-25T07:34:13;6.97;;;6.32;;
15398;SDS011;7797;51.428;6.756;2022-07-25T07:36:41;8.52;;;5.80;;
15398;SDS011;7797;51.428;6.756;2022-07-25T07:39:08;6.70;;;6.10;;
15398;SDS011;7797;51.428;6.756;2022-07-25T07:41:35;7.30;;;5.95;;
15398;SDS011;7797;51.428;6.756;2022-07-25T07:44:02;8.27;;;6.13;;
15398;SDS011;7797;51.428;6.756;2022-07-25T07:46:29;6.32;;;5.72;;
15398;SDS011;7797;51.428;6.756;2022-07-25T07:48:56;5.70;;;5.20;;
15398;SDS011;7797;51.428;6.756;2022-07-25T07:51:22;6.97;;;5.18;;
15398;SDS011;7797;51.428;6.756;2022-07-25T07:53:49;6.35;;;5.72;;
15398;SDS011;7797;51.428;6.756;2022-07-25T07:56:34;8.48;;;5.75;;
15398;SDS011;7797;51.428;6.756;2022-07-25T07:59:01;6.78;;;6.07;;
15398;SDS011;7797;51.428;6.756;2022-07-25T08:01:29;5.93;;;5.43;;
15398;SDS011;7797;51.428;6.756;2022-07-25T08:03:56;7.07;;;5.43;;
15398;SDS011;7797;51.428;6.756;2022-07-25T08:06:22;5.85;;;5.05;;
15398;SDS011;7797;51.428;6.756;2022-07-25T08:08:49;7.43;;;5.63;;
15398;SDS011;7797;51.428;6.756;2022-07-25T08:11:16;6.75;;;5.68;;
15398;SDS011;7797;51.428;6.756;2022-07-25T08:13:44;6.47;;;5.30;;
15398;SDS011;7797;51.428;6.756;2022-07-25T08:16:11;6.05;;;5.43;;
15398;SDS011;7797;51.428;6.756;2022-07-25T08:18:39;6.75;;;5.68;;
15398;SDS011;7797;51.428;6.756;2022-07-25T08:21:05;6.10;;;5.50;;
15398;SDS011;7797;51.428;6.756;2022-07-25T08:23:32;7.93;;;5.32;;
15398;SDS011;7797;51.428;6.756;2022-07-25T08:26:04;7.68;;;5.50;;
15398;SDS011;7797;51.428;6.756;2022-07-25T08:28:31;7.68;;;5.57;;
15398;SDS011;7797;51.428;6.756;2022-07-25T08:30:58;7.65;;;5.90;;
15398;SDS011;7797;51.428;6.756;2022-07-25T08:33:25;7.63;;;5.60;;
15398;SDS011;7797;51.428;6.756;2022-07-25T08:35:53;7.22;;;4.97;;
15398;SDS011;7797;51.428;6.756;2022-07-25T08:38:21;5.90;;;5.40;;
15398;SDS011;7797;51.428;6.756;2022-07-25T08:40:49;7.78;;;5.60;;
15398;SDS011;7797;51.428;6.756;2022-07-25T08:43:16;5.97;;;5.47;;
15398;SDS011;7797;51.428;6.756;2022-07-25T08:45:45;5.78;;;5.28;;
15398;SDS011;7797;51.428;6.756;2022-07-25T08:48:15;6.15;;;5.32;;
15398;SDS011;7797;51.428;6.756;2022-07-25T08:50:43;6.63;;;5.32;;
15398;SDS011;7797;51.428;6.756;2022-07-25T08:53:11;6.68;;;5.47;;
15398;SDS011;7797;51.428;6.756;2022-07-25T08:55:58;8.25;;;5.72;;
15398;SDS011;7797;51.428;6.756;2022-07-25T08:58:25;6.35;;;5.65;;
15398;SDS011;7797;51.428;6.756;2022-07-25T09:00:52;8.73;;;5.75;;
15398;SDS011;7797;51.428;6.756;2022-07-25T09:03:19;5.97;;;5.47;;
15398;SDS011;7797;51.428;6.756;2022-07-25T09:05:46;6.43;;;5.80;;
15398;SDS011;7797;51.428;6.756;2022-07-25T09:08:14;5.95;;;5.45;;
15398;SDS011;7797;51.428;6.756;2022-07-25T09:10:49;6.03;;;5.50;;
15398;SDS011;7797;51.428;6.756;2022-07-25T09:13:18;6.57;;;5.93;;
15398;SDS011;7797;51.428;6.756;2022-07-25T09:15:47;6.53;;;5.93;;
15398;SDS011;7797;51.428;6.756;2022-07-25T09:18:17;5.93;;;5.43;;
15398;SDS011;7797;51.428;6.756;2022-07-25T09:20:54;6.30;;;5.63;;
15398;SDS011;7797;51.428;6.756;2022-07-25T09:23:31;7.68;;;5.63;;
15398;SDS011;7797;51.428;6.756;2022-07-25T09:26:08;6.35;;;5.72;;
15398;SDS011;7797;51.428;6.756;2022-07-25T09:28:46;6.78;;;5.75;;
15398;SDS011;7797;51.428;6.756;2022-07-25T09:31:14;6.53;;;5.50;;
15398;SDS011;7797;51.428;6.756;2022-07-25T09:33:49;6.07;;;5.45;;
15398;SDS011;7797;51.428;6.756;2022-07-25T09:36:17;7.18;;;6.07;;
15398;SDS011;7797;51.428;6.756;2022-07-25T09:38:54;6.13;;;5.35;;
15398;SDS011;7797;51.428;6.756;2022-07-25T09:41:36;6.50;;;5.70;;
15398;SDS011;7797;51.428;6.756;2022-07-25T09:44:16;7.28;;;5.68;;
15398;SDS011;7797;51.428;6.756;2022-07-25T09:46:43;6.22;;;5.63;;
15398;SDS011;7797;51.428;6.756;2022-07-25T09:49:11;5.53;;;5.03;;
15398;SDS011;7797;51.428;6.756;2022-07-25T09:51:40;6.95;;;5.47;;
15398;SDS011;7797;51.428;6.756;2022-07-25T09:54:08;6.47;;;5.07;;
15398;SDS011;7797;51.428;6.756;2022-07-25T09:56:35;5.43;;;4.93;;
15398;SDS011;7797;51.428;6.756;2022-07-25T09:59:02;6.97;;;4.80;;
15398;SDS011;7797;51.428;6.756;2022-07-25T10:01:34;5.13;;;4.63;;
15398;SDS011;7797;51.428;6.756;2022-07-25T10:06:36;6.20;;;3.83;;
15398;SDS011;7797;51.428;6.756;2022-07-25T10:09:09;5.05;;;3.88;;
15398;SDS011;7797;51.428;6.756;2022-07-25T10:11:37;5.35;;;3.92;;
15398;SDS011;7797;51.428;6.756;2022-07-25T10:14:10;4.63;;;4.20;;
15398;SDS011;7797;51.428;6.756;2022-07-25T10:16:44;4.28;;;3.97;;
15398;SDS011;7797;51.428;6.756;2022-07-25T10:19:12;5.43;;;3.92;;
15398;SDS011;7797;51.428;6.756;2022-07-25T10:21:39;5.20;;;4.07;;
15398;SDS011;7797;51.428;6.756;2022-07-25T10:24:07;4.20;;;3.80;;
15398;SDS011;7797;51.428;6.756;2022-07-25T10:26:36;4.18;;;3.65;;
15398;SDS011;7797;51.428;6.756;2022-07-25T10:29:08;4.70;;;3.40;;
15398;SDS011;7797;51.428;6.756;2022-07-25T10:31:37;3.88;;;3.58;;
15398;SDS011;7797;51.428;6.756;2022-07-25T10:34:15;3.90;;;3.38;;
15398;SDS011;7797;51.428;6.756;2022-07-25T10:36:46;3.80;;;3.50;;
15398;SDS011;7797;51.428;6.756;2022-07-25T10:39:19;4.47;;;3.90;;
15398;SDS011;7797;51.428;6.756;2022-07-25T10:41:51;4.13;;;3.72;;
15398;SDS011;7797;51.428;6.756;2022-07-25T10:44:19;5.65;;;4.00;;
15398;SDS011;7797;51.428;6.756;2022-07-25T10:46:46;4.10;;;3.70;;
15398;SDS011;7797;51.428;6.756;2022-07-25T10:49:23;4.40;;;4.00;;
15398;SDS011;7797;51.428;6.756;2022-07-25T10:52:01;4.85;;;4.45;;
15398;SDS011;7797;51.428;6.756;2022-07-25T10:54:32;4.60;;;4.10;;
15398;SDS011;7797;51.428;6.756;2022-07-25T10:57:01;5.25;;;3.97;;
15398;SDS011;7797;51.428;6.756;2022-07-25T11:01:58;3.90;;;3.60;;
15398;SDS011;7797;51.428;6.756;2022-07-25T11:04:25;3.78;;;3.47;;
15398;SDS011;7797;51.428;6.756;2022-07-25T11:06:53;4.95;;;3.45;;
15398;SDS011;7797;51.428;6.756;2022-07-25T11:09:21;4.00;;;3.47;;
15398;SDS011;7797;51.428;6.756;2022-07-25T11:11:56;4.28;;;3.38;;
15398;SDS011;7797;51.428;6.756;2022-07-25T11:14:26;3.85;;;3.50;;
15398;SDS011;7797;51.428;6.756;2022-07-25T11:19:43;6.18;;;3.33;;
15398;SDS011;7797;51.428;6.756;2022-07-25T11:22:10;3.55;;;3.28;;
15398;SDS011;7797;51.428;6.756;2022-07-25T11:24:41;5.15;;;3.60;;
15398;SDS011;7797;51.428;6.756;2022-07-25T11:27:10;5.72;;;3.72;;
15398;SDS011;7797;51.428;6.756;2022-07-25T11:29:38;3.53;;;3.30;;
15398;SDS011;7797;51.428;6.756;2022-07-25T11:32:06;3.63;;;3.08;;
15398;SDS011;7797;51.428;6.756;2022-07-25T11:34:36;3.40;;;3.13;;
15398;SDS011;7797;51.428;6.756;2022-07-25T11:37:06;3.35;;;3.10;;
15398;SDS011;7797;51.428;6.756;2022-07-25T11:39:35;3.30;;;3.10;;
15398;SDS011;7797;51.428;6.756;2022-07-25T11:42:04;4.97;;;3.80;;
15398;SDS011;7797;51.428;6.756;2022-07-25T11:44:40;4.95;;;3.60;;
15398;SDS011;7797;51.428;6.756;2022-07-25T11:50:00;4.43;;;3.28;;
15398;SDS011;7797;51.428;6.756;2022-07-25T11:52:28;4.45;;;3.60;;
15398;SDS011;7797;51.428;6.756;2022-07-25T11:57:25;3.63;;;3.33;;
15398;SDS011;7797;51.428;6.756;2022-07-25T11:59:58;3.90;;;3.30;;
15398;SDS011;7797;51.428;6.756;2022-07-25T12:02:32;5.20;;;3.35;;
15398;SDS011;7797;51.428;6.756;2022-07-25T12:05:01;3.67;;;3.38;;
15398;SDS011;7797;51.428;6.756;2022-07-25T12:15:22;4.13;;;3.25;;
15398;SDS011;7797;51.428;6.756;2022-07-25T12:17:51;6.47;;;3.38;;
15398;SDS011;7797;51.428;6.756;2022-07-25T12:20:20;3.22;;;2.80;;
15398;SDS011;7797;51.428;6.756;2022-07-25T12:22:52;4.45;;;3.25;;
15398;SDS011;7797;51.428;6.756;2022-07-25T12:25:20;3.22;;;3.03;;
15398;SDS011;7797;51.428;6.756;2022-07-25T12:27:52;4.28;;;3.88;;
15398;SDS011;7797;51.428;6.756;2022-07-25T12:30:19;4.38;;;3.45;;
15398;SDS011;7797;51.428;6.756;2022-07-25T12:32:46;3.95;;;3.28;;
15398;SDS011;7797;51.428;6.756;2022-07-25T12:35:13;5.22;;;3.33;;
15398;SDS011;7797;51.428;6.756;2022-07-25T12:37:40;6.72;;;3.58;;
15398;SDS011;7797;51.428;6.756;2022-07-25T12:40:08;4.68;;;3.90;;
15398;SDS011;7797;51.428;6.756;2022-07-25T12:42:35;4.45;;;4.00;;
15398;SDS011;7797;51.428;6.756;2022-07-25T12:45:03;7.20;;;3.60;;
15398;SDS011;7797;51.428;6.756;2022-07-25T12:47:30;4.20;;;3.83;;
15398;SDS011;7797;51.428;6.756;2022-07-25T12:49:57;4.55;;;4.00;;
15398;SDS011;7797;51.428;6.756;2022-07-25T12:52:24;7.80;;;4.25;;
15398;SDS011;7797;51.428;6.756;2022-07-25T12:54:50;5.45;;;3.35;;
15398;SDS011;7797;51.428;6.756;2022-07-25T12:57:17;3.53;;;3.20;;
15398;SDS011;7797;51.428;6.756;2022-07-25T12:59:46;6.88;;;3.50;;
15398;SDS011;7797;51.428;6.756;2022-07-25T13:02:13;3.55;;;3.25;;
15398;SDS011;7797;51.428;6.756;2022-07-25T13:04:40;7.20;;;3.25;;
15398;SDS011;7797;51.428;6.756;2022-07-25T13:07:06;3.95;;;3.22;;
15398;SDS011;7797;51.428;6.756;2022-07-25T13:09:33;5.05;;;2.83;;
15398;SDS011;7797;51.428;6.756;2022-07-25T13:12:00;4.50;;;3.00;;
15398;SDS011;7797;51.428;6.756;2022-07-25T13:14:27;3.17;;;2.90;;
15398;SDS011;7797;51.428;6.756;2022-07-25T13:16:54;3.20;;;3.00;;
15398;SDS011;7797;51.428;6.756;2022-07-25T13:19:22;3.53;;;2.80;;
15398;SDS011;7797;51.428;6.756;2022-07-25T13:21:49;4.30;;;2.88;;
15398;SDS011;7797;51.428;6.756;2022-07-25T13:24:15;3.10;;;2.75;;
15398;SDS011;7797;51.428;6.756;2022-07-25T13:26:42;3.30;;;2.75;;
15398;SDS011;7797;51.428;6.756;2022-07-25T13:29:09;3.15;;;2.92;;
15398;SDS011;7797;51.428;6.756;2022-07-25T13:31:38;5.22;;;2.75;;
15398;SDS011;7797;51.428;6.756;2022-07-25T13:34:07;3.97;;;3.05;;
15398;SDS011;7797;51.428;6.756;2022-07-25T13:36:35;3.47;;;2.90;;
15398;SDS011;7797;51.428;6.756;2022-07-25T13:39:02;3.22;;;2.60;;
15398;SDS011;7797;51.428;6.756;2022-07-25T13:41:30;3.33;;;2.53;;
15398;SDS011;7797;51.428;6.756;2022-07-25T13:43:57;2.70;;;2.50;;
15398;SDS011;7797;51.428;6.756;2022-07-25T13:46:24;2.83;;;2.42;;
15398;SDS011;7797;51.428;6.756;2022-07-25T13:48:51;4.93;;;2.45;;
15398;SDS011;7797;51.428;6.756;2022-07-25T13:51:18;5.53;;;2.60;;
15398;SDS011;7797;51.428;6.756;2022-07-25T13:53:44;2.85;;;2.50;;
15398;SDS011;7797;51.428;6.756;2022-07-25T13:56:11;2.45;;;2.35;;
15398;SDS011;7797;51.428;6.756;2022-07-25T13:58:39;2.63;;;2.47;;
15398;SDS011;7797;51.428;6.756;2022-07-25T14:01:06;3.55;;;2.53;;
15398;SDS011;7797;51.428;6.756;2022-07-25T14:03:33;2.90;;;2.70;;
15398;SDS011;7797;51.428;6.756;2022-07-25T14:06:02;3.00;;;2.70;;
15398;SDS011;7797;51.428;6.756;2022-07-25T14:08:29;6.35;;;2.47;;
15398;SDS011;7797;51.428;6.756;2022-07-25T14:10:57;4.15;;;2.60;;
15398;SDS011;7797;51.428;6.756;2022-07-25T14:13:23;2.72;;;2.50;;
15398;SDS011;7797;51.428;6.756;2022-07-25T14:15:50;4.75;;;2.53;;
15398;SDS011;7797;51.428;6.756;2022-07-25T14:18:17;2.67;;;2.47;;
15398;SDS011;7797;51.428;6.756;2022-07-25T14:20:44;3.47;;;2.47;;
15398;SDS011;7797;51.428;6.756;2022-07-25T14:23:11;4.57;;;2.35;;
15398;SDS011;7797;51.428;6.756;2022-07-25T14:25:38;3.88;;;2.38;;
15398;SDS011;7797;51.428;6.756;2022-07-25T14:28:05;2.95;;;2.65;;
15398;SDS011;7797;51.428;6.756;2022-07-25T14:30:32;2.85;;;2.30;;
15398;SDS011;7797;51.428;6.756;2022-07-25T14:32:59;2.35;;;2.10;;
15398;SDS011;7797;51.428;6.756;2022-07-25T14:35:26;2.88;;;2.55;;
15398;SDS011;7797;51.428;6.756;2022-07-25T14:37:57;4.75;;;3.00;;
15398;SDS011;7797;51.428;6.756;2022-07-25T14:40:24;4.80;;;2.83;;
15398;SDS011;7797;51.428;6.756;2022-07-25T14:42:51;7.05;;;2.72;;
15398;SDS011;7797;51.428;6.756;2022-07-25T14:45:18;3.83;;;2.80;;
15398;SDS011;7797;51.428;6.756;2022-07-25T14:47:47;5.85;;;2.75;;
15398;SDS011;7797;51.428;6.756;2022-07-25T14:50:13;5.47;;;2.90;;
15398;SDS011;7797;51.428;6.756;2022-07-25T14:52:40;3.42;;;2.80;;
15398;SDS011;7797;51.428;6.756;2022-07-25T14:55:07;2.97;;;2.75;;
15398;SDS011;7797;51.428;6.756;2022-07-25T14:57:34;3.38;;;3.08;;
15398;SDS011;7797;51.428;6.756;2022-07-25T15:00:02;4.32;;;3.15;;
15398;SDS011;7797;51.428;6.756;2022-07-25T15:02:30;5.03;;;2.78;;
15398;SDS011;7797;51.428;6.756;2022-07-25T15:04:57;5.88;;;3.03;;
15398;SDS011;7797;51.428;6.756;2022-07-25T15:07:24;3.40;;;2.40;;
15398;SDS011;7797;51.428;6.756;2022-07-25T15:09:51;2.97;;;2.58;;
15398;SDS011;7797;51.428;6.756;2022-07-25T15:12:17;3.97;;;2.42;;
15398;SDS011;7797;51.428;6.756;2022-07-25T15:14:46;3.40;;;2.60;;
15398;SDS011;7797;51.428;6.756;2022-07-25T15:17:12;4.75;;;2.50;;
15398;SDS011;7797;51.428;6.756;2022-07-25T15:19:39;3.10;;;2.35;;
15398;SDS011;7797;51.428;6.756;2022-07-25T15:22:06;5.50;;;2.65;;
15398;SDS011;7797;51.428;6.756;2022-07-25T15:24:33;4.30;;;2.50;;
15398;SDS011;7797;51.428;6.756;2022-07-25T15:27:19;4.43;;;2.65;;